首页
METAR-TAF:

METAR-TAF

机场 :

Bartlesville, 奧克拉荷馬州, 美国

纬度: 36-46-06N, 经度: 096-01-34W, 海拔: 217米

当前天气观测

该预报发布于26分钟前的05:53 UTC
风速4节,风向
温度 23°C
湿度 73%
气压 1014 hPa
能見度: 16.1公里
天空无云

METAR: KBVO 130553Z AUTO 19004KT 10SM CLR 23/18 A2993 RMK AO2 SLP122 T02330183 10306 20228 403170139 50003

时间: 01:19 (06:19 UTC)

预报

该预报发布于57分钟前的05:22 UTC
预报有效从13日的 06点(UTC)到 14日的 06点(UTC)
风速3节,风向
能見度: 10公里
天空无云
从 13日的 1600点(UTC)
风速10节,风向南转西南,有时为18节阵风
能見度: 10公里
少量云层高于5000英尺
散云层高于25000英尺
从 14日的 0100点(UTC)
风速5节,风向
能見度: 10公里
散云层高于15000英尺

TAF: KBVO 130522Z 1306/1406 19003KT P6SM SKC FM131600 21010G18KT P6SM FEW050 SCT250 FM140100 19005KT P6SM SCT150

超过4000个机场的气象观测和天气预报(METAR&TAF报告)。

可查询的气象台以黄色和红色小点在地图上表示。

将鼠标移到小点上方,可查看气象台名称。

然后点击查看天气观测和预报。

如需切换地图:点击带黑十字的绿色按钮放大地图;点击带横线的绿色按钮缩小地图;或者点击绿色箭头查看邻近地区的地图。


METAR-TAF: